Time;durP1;ratioP1;P1;durP2;ratioP2;P2;SDS_P1;SDS_P2;PMS_P1;PMS_P2;Temp;Humidity;BMP_temperature;BMP_pressure;BME280_temperature;BME280_humidity;BME280_pressure;Samples;Min_cycle;Max_cycle;Signal;HPM_P1;HPM_P2
2022/10/17 00:02:06;;;;;;;;;;;;;;;9.66;62.13;101171.97;4972411;28;19925;-84
2022/10/17 00:04:31;;;;;;;;;;;;;;;9.58;61.54;101181.53;4972118;28;20000;-84
2022/10/17 00:06:56;;;;;;;;;;;;;;;9.53;61.86;101176.19;4990140;28;19914;-83
2022/10/17 00:09:22;;;;;;;;;;;;;;;9.43;62.02;101185.72;4991797;28;19925;-84
2022/10/17 00:11:47;;;;;;;;;;;;;;;9.44;62.20;101187.50;4989163;28;19922;-84
2022/10/17 00:14:12;;;;;;;;;;;;;;;9.11;62.96;101183.53;4972446;28;19918;-84
2022/10/17 00:16:38;;;;;;;;;;;;;;;9.09;62.85;101179.09;4972442;28;19925;-84
2022/10/17 00:19:04;;;;;;;;;;;;;;;9.07;63.14;101175.56;4972125;28;19964;-84
2022/10/17 00:21:29;;;;;;;;;;;;;;;9.20;62.93;101171.34;4972055;28;19915;-86
2022/10/17 00:23:55;;;;;;;;;;;;;;;9.23;62.24;101172.25;4991016;28;19917;-84
2022/10/17 00:26:20;;;;;;;;;;;;;;;9.05;63.88;101175.53;4978773;28;19914;-87
2022/10/17 00:28:46;;;;;;;;;;;;;;;9.16;63.39;101175.69;4972319;28;20352;-84
2022/10/17 00:31:12;;;;;;;;;;;;;;;9.29;63.38;101172.34;4972518;28;19914;-85
2022/10/17 00:33:38;;;;;;;;;;;;;;;9.28;62.86;101174.97;4971773;28;19981;-84
2022/10/17 00:36:08;;;;;;;;;;;;;;;9.27;63.09;101178.47;4972123;28;20367;-84
2022/10/17 00:38:33;;;;;;;;;;;;;;;9.16;64.09;101180.97;4991193;28;19917;-84
2022/10/17 00:40:58;;;;;;;;;;;;;;;9.20;64.04;101184.50;4991040;28;19913;-84
2022/10/17 00:43:25;;;;;;;;;;;;;;;9.23;63.97;101185.44;4972470;28;20001;-84
2022/10/17 00:45:50;;;;;;;;;;;;;;;9.17;64.28;101181.84;4972137;28;20385;-83
2022/10/17 00:48:16;;;;;;;;;;;;;;;9.19;64.42;101182.72;4971900;28;19920;-84
2022/10/17 00:50:43;;;;;;;;;;;;;;;9.27;64.23;101182.00;4972554;28;19976;-84
2022/10/17 00:53:08;;;;;;;;;;;;;;;9.31;64.41;101180.28;4972438;28;19957;-84
2022/10/17 00:55:36;;;;;;;;;;;;;;;9.26;63.91;101185.47;4971895;28;19961;-85
2022/10/17 00:58:03;;;;;;;;;;;;;;;9.28;64.23;101193.41;4972073;28;19914;-83
2022/10/17 01:00:29;;;;;;;;;;;;;;;9.40;64.15;101185.66;4972236;28;19918;-83
2022/10/17 01:02:54;;;;;;;;;;;;;;;9.43;63.83;101187.47;4972058;28;19968;-84
2022/10/17 01:05:20;;;;;;;;;;;;;;;9.44;63.28;101194.53;4972573;28;19965;-83
2022/10/17 01:07:48;;;;;;;;;;;;;;;9.24;64.35;101189.84;4971838;28;19921;-83
2022/10/17 01:10:14;;;;;;;;;;;;;;;9.07;65.50;101186.97;4972097;28;20441;-83
2022/10/17 01:12:39;;;;;;;;;;;;;;;8.86;66.93;101187.50;4956995;28;19918;-83
2022/10/17 01:15:22;;;;;;;;;;;;;;;8.92;66.57;101186.72;4974981;28;19924;-84
2022/10/17 01:18:12;;;;;;;;;;;;;;;9.02;66.64;101190.38;4975477;28;19914;-84
2022/10/17 01:20:37;;;;;;;;;;;;;;;9.07;66.06;101196.63;4975509;28;19914;-84
2022/10/17 01:23:20;;;;;;;;;;;;;;;9.11;65.24;101185.25;4975670;28;19921;-84
2022/10/17 01:25:55;;;;;;;;;;;;;;;9.19;64.63;101190.63;4975108;28;19924;-84
2022/10/17 01:28:24;;;;;;;;;;;;;;;9.06;64.92;101197.47;4975450;28;19914;-84
2022/10/17 01:30:52;;;;;;;;;;;;;;;8.99;65.27;101195.59;4975683;28;20404;-83
2022/10/17 01:33:29;;;;;;;;;;;;;;;9.04;66.18;101194.81;4982588;28;20009;-84
2022/10/17 01:35:58;;;;;;;;;;;;;;;9.07;65.32;101191.34;4975275;28;19910;-84
2022/10/17 01:38:30;;;;;;;;;;;;;;;8.81;66.32;101193.59;4975310;28;19918;-84
2022/10/17 01:41:01;;;;;;;;;;;;;;;8.96;65.96;101207.84;4975784;28;19917;-83
2022/10/17 01:43:30;;;;;;;;;;;;;;;8.97;66.78;101198.22;4975847;28;20004;-84
2022/10/17 01:46:01;;;;;;;;;;;;;;;8.97;66.12;101203.47;4976546;28;19924;-82
2022/10/17 01:48:34;;;;;;;;;;;;;;;8.86;66.25;101202.44;4975411;28;19941;-84
2022/10/17 01:51:07;;;;;;;;;;;;;;;8.86;66.43;101200.66;4974675;28;19996;-86
2022/10/17 01:53:34;;;;;;;;;;;;;;;9.00;66.08;101195.63;4975143;28;19968;-85
2022/10/17 01:56:01;;;;;;;;;;;;;;;8.94;65.72;101203.41;4957456;28;19965;-84
2022/10/17 01:58:31;;;;;;;;;;;;;;;9.05;65.41;101204.50;4974595;28;19977;-84
2022/10/17 02:00:59;;;;;;;;;;;;;;;8.90;65.88;101214.78;4975142;28;19978;-83
2022/10/17 02:03:26;;;;;;;;;;;;;;;8.82;65.47;101212.03;4974505;28;19960;-84
2022/10/17 02:05:51;;;;;;;;;;;;;;;8.61;66.60;101215.16;4974351;28;19918;-84
2022/10/17 02:08:27;;;;;;;;;;;;;;;8.75;65.99;101216.28;4974574;28;19924;-84
2022/10/17 02:10:52;;;;;;;;;;;;;;;8.88;65.26;101213.84;4974207;28;20451;-84
2022/10/17 02:13:36;;;;;;;;;;;;;;;8.81;64.67;101210.25;4981481;28;19921;-83
2022/10/17 02:16:16;;;;;;;;;;;;;;;8.53;65.47;101209.78;4979828;28;19997;-84
2022/10/17 02:18:42;;;;;;;;;;;;;;;8.40;66.04;101208.66;4962211;28;19918;-84
2022/10/17 02:21:13;;;;;;;;;;;;;;;8.47;66.85;101214.06;4974021;28;19922;-84
2022/10/17 02:24:01;;;;;;;;;;;;;;;8.50;66.36;101214.97;4973546;28;19918;-84
2022/10/17 02:26:53;;;;;;;;;;;;;;;8.32;67.85;101222.50;4951430;28;20072;-84
2022/10/17 02:29:21;;;;;;;;;;;;;;;8.30;69.12;101229.50;4941216;28;19918;-84
2022/10/17 02:31:46;;;;;;;;;;;;;;;8.25;69.28;101234.66;4977071;28;19922;-84
2022/10/17 02:34:15;;;;;;;;;;;;;;;8.33;68.80;101243.56;4975912;28;19913;-84
2022/10/17 02:36:46;;;;;;;;;;;;;;;8.36;69.00;101241.00;4993364;28;19913;-84
2022/10/17 02:39:12;;;;;;;;;;;;;;;8.48;67.40;101250.00;4975746;28;19985;-85
2022/10/17 02:41:39;;;;;;;;;;;;;;;8.27;65.65;101251.34;4973629;28;19993;-84
2022/10/17 02:44:05;;;;;;;;;;;;;;;8.01;65.82;101251.69;4972959;28;19968;-84
2022/10/17 02:46:32;;;;;;;;;;;;;;;7.91;66.66;101262.91;4973638;28;19914;-85
2022/10/17 02:49:01;;;;;;;;;;;;;;;7.76;67.07;101258.19;4974133;28;20130;-84
2022/10/17 02:51:27;;;;;;;;;;;;;;;7.98;66.27;101261.28;4955531;28;19926;-85
2022/10/17 02:53:55;;;;;;;;;;;;;;;8.03;66.07;101252.63;4973457;28;19914;-85
2022/10/17 02:56:21;;;;;;;;;;;;;;;8.05;66.13;101252.66;4973344;28;19914;-84
2022/10/17 02:58:49;;;;;;;;;;;;;;;7.77;67.37;101248.56;4973345;28;19914;-84
2022/10/17 03:01:15;;;;;;;;;;;;;;;7.92;67.50;101262.03;4972926;28;20404;-84
2022/10/17 03:03:40;;;;;;;;;;;;;;;8.01;68.16;101262.22;4971070;28;19917;-85
2022/10/17 03:06:05;;;;;;;;;;;;;;;7.97;68.18;101260.41;4973507;28;20305;-85
2022/10/17 03:08:31;;;;;;;;;;;;;;;7.87;67.88;101264.56;4973973;28;19989;-84
2022/10/17 03:10:56;;;;;;;;;;;;;;;7.95;67.93;101266.47;4973273;28;19974;-85
2022/10/17 03:13:21;;;;;;;;;;;;;;;8.07;66.87;101257.06;4973030;28;19929;-83
2022/10/17 03:15:47;;;;;;;;;;;;;;;7.87;66.48;101256.66;4973482;28;19922;-84
2022/10/17 03:18:12;;;;;;;;;;;;;;;7.68;67.12;101265.03;4973024;28;19914;-85
2022/10/17 03:20:37;;;;;;;;;;;;;;;7.23;68.43;101269.25;4972915;28;19922;-84
2022/10/17 03:23:03;;;;;;;;;;;;;;;7.40;67.76;101279.25;4971485;28;20400;-86
2022/10/17 03:25:28;;;;;;;;;;;;;;;7.26;68.01;101281.56;4972377;28;19976;-84
2022/10/17 03:27:53;;;;;;;;;;;;;;;7.39;67.56;101278.38;4971365;28;19921;-89
2022/10/17 03:30:19;;;;;;;;;;;;;;;7.28;67.13;101279.88;4979463;28;19984;-88
2022/10/17 03:32:44;;;;;;;;;;;;;;;7.23;67.37;101273.59;4983091;28;20004;-87
2022/10/17 03:35:09;;;;;;;;;;;;;;;6.99;68.65;101269.53;4972013;28;19949;-85
2022/10/17 03:37:35;;;;;;;;;;;;;;;6.81;70.04;101260.38;4955516;28;19981;-86
2022/10/17 03:40:00;;;;;;;;;;;;;;;6.67;71.82;101260.84;4955687;28;20364;-85
2022/10/17 03:42:25;;;;;;;;;;;;;;;6.63;72.84;101250.28;4953594;28;19922;-89
2022/10/17 03:44:54;;;;;;;;;;;;;;;6.84;72.96;101254.28;4972647;28;19918;-87
2022/10/17 03:47:19;;;;;;;;;;;;;;;6.75;73.75;101248.81;4971997;28;19921;-87
2022/10/17 03:49:44;;;;;;;;;;;;;;;6.70;74.63;101248.69;4971127;28;19917;-86
2022/10/17 03:52:13;;;;;;;;;;;;;;;6.85;74.71;101250.84;4971801;28;19969;-85
2022/10/17 03:54:39;;;;;;;;;;;;;;;6.92;74.67;101260.66;4983337;28;20447;-87
2022/10/17 03:57:04;;;;;;;;;;;;;;;7.05;74.31;101269.69;4972466;28;19957;-87
2022/10/17 03:59:30;;;;;;;;;;;;;;;7.28;73.46;101278.13;4972595;28;19914;-87
2022/10/17 04:01:55;;;;;;;;;;;;;;;7.34;73.14;101283.53;4955287;28;19922;-89
2022/10/17 04:04:20;;;;;;;;;;;;;;;7.40;71.86;101285.41;4986187;28;19921;-92
2022/10/17 04:06:46;;;;;;;;;;;;;;;7.03;72.34;101278.38;4991726;28;19914;-84
2022/10/17 04:09:11;;;;;;;;;;;;;;;7.25;71.70;101272.81;4992175;28;19914;-85
2022/10/17 04:11:37;;;;;;;;;;;;;;;7.32;71.67;101279.97;4992349;28;19917;-84
2022/10/17 04:14:02;;;;;;;;;;;;;;;7.17;71.82;101282.25;4984083;28;19926;-85
2022/10/17 04:16:28;;;;;;;;;;;;;;;7.24;71.24;101285.88;4975349;28;19972;-86
2022/10/17 04:18:54;;;;;;;;;;;;;;;7.20;70.46;101287.56;4958488;28;19914;-82
2022/10/17 04:21:20;;;;;;;;;;;;;;;7.16;70.37;101301.44;4974185;28;19941;-83
2022/10/17 04:23:45;;;;;;;;;;;;;;;7.09;70.53;101296.88;4962621;28;20392;-89
2022/10/17 04:26:11;;;;;;;;;;;;;;;7.02;70.21;101290.63;4992175;28;20001;-84
2022/10/17 04:28:36;;;;;;;;;;;;;;;6.95;70.30;101286.97;4991917;28;20020;-87
2022/10/17 04:31:10;;;;;;;;;;;;;;;7.12;70.60;101286.47;4976030;28;19924;-82
2022/10/17 04:33:36;;;;;;;;;;;;;;;7.11;70.26;101296.09;4984018;28;19921;-83
2022/10/17 04:36:05;;;;;;;;;;;;;;;7.09;70.48;101304.75;4988266;28;20008;-81
2022/10/17 04:38:31;;;;;;;;;;;;;;;7.23;69.80;101311.25;4986446;28;19983;-81
2022/10/17 04:41:03;;;;;;;;;;;;;;;6.65;69.97;101313.25;4982976;28;19925;-81
2022/10/17 04:43:29;;;;;;;;;;;;;;;6.58;71.22;101321.81;4971928;28;19917;-83
2022/10/17 04:45:55;;;;;;;;;;;;;;;6.66;70.50;101311.53;4960847;28;20292;-84
2022/10/17 04:48:21;;;;;;;;;;;;;;;6.84;69.97;101317.25;4974853;28;19926;-86
2022/10/17 04:50:56;;;;;;;;;;;;;;;7.02;68.92;101334.34;4975322;28;19937;-83
2022/10/17 04:53:22;;;;;;;;;;;;;;;6.87;68.87;101334.81;4977364;28;19933;-82
2022/10/17 04:55:48;;;;;;;;;;;;;;;6.69;69.89;101335.22;4970926;28;20024;-83
2022/10/17 04:58:14;;;;;;;;;;;;;;;6.78;69.77;101343.31;4975146;28;20001;-84
2022/10/17 05:00:39;;;;;;;;;;;;;;;6.99;69.13;101341.25;4974623;28;19925;-84
2022/10/17 05:03:04;;;;;;;;;;;;;;;7.04;69.64;101344.00;4981409;28;19925;-83
2022/10/17 05:05:30;;;;;;;;;;;;;;;7.26;69.18;101341.94;4974936;28;19941;-83
2022/10/17 05:07:55;;;;;;;;;;;;;;;7.25;68.79;101343.69;4967907;28;19918;-83
2022/10/17 05:10:21;;;;;;;;;;;;;;;7.31;69.41;101342.94;4974943;28;19968;-84
2022/10/17 05:12:49;;;;;;;;;;;;;;;7.43;68.97;101355.47;4973829;28;19929;-84
2022/10/17 05:15:15;;;;;;;;;;;;;;;7.46;69.79;101348.56;4974304;28;19975;-83
2022/10/17 05:17:40;;;;;;;;;;;;;;;7.44;70.27;101352.00;4973017;28;20004;-83
2022/10/17 05:20:06;;;;;;;;;;;;;;;7.83;71.73;101353.78;4973280;28;19918;-83
2022/10/17 05:22:31;;;;;;;;;;;;;;;8.14;72.82;101357.09;4981176;28;20008;-84
2022/10/17 05:24:56;;;;;;;;;;;;;;;8.46;70.90;101360.41;4979117;28;19914;-84
2022/10/17 05:27:22;;;;;;;;;;;;;;;8.33;69.89;101361.00;4971532;28;19925;-84
2022/10/17 05:29:47;;;;;;;;;;;;;;;8.47;69.97;101362.22;4973876;28;19925;-84
2022/10/17 05:32:13;;;;;;;;;;;;;;;8.70;69.18;101365.28;4979442;28;19925;-84
2022/10/17 05:34:39;;;;;;;;;;;;;;;8.90;69.25;101370.94;4989915;28;19969;-81
2022/10/17 05:37:04;;;;;;;;;;;;;;;9.07;68.98;101376.50;4982164;28;20016;-85
2022/10/17 05:39:29;;;;;;;;;;;;;;;9.27;68.80;101371.59;4974186;28;19914;-85
2022/10/17 05:41:55;;;;;;;;;;;;;;;9.57;68.60;101378.22;4990524;28;19924;-81
2022/10/17 05:44:20;;;;;;;;;;;;;;;9.77;66.59;101377.66;4993215;28;19914;-84
2022/10/17 05:46:47;;;;;;;;;;;;;;;10.00;66.78;101383.25;4979737;28;19917;-81
2022/10/17 05:49:12;;;;;;;;;;;;;;;10.25;65.81;101383.59;4993620;28;19913;-81
2022/10/17 05:51:37;;;;;;;;;;;;;;;10.26;63.74;101396.81;4993856;28;19929;-81
2022/10/17 05:54:06;;;;;;;;;;;;;;;10.69;63.53;101400.00;4993318;28;19920;-81
2022/10/17 05:56:31;;;;;;;;;;;;;;;10.73;62.91;101396.53;4992713;28;19953;-81
2022/10/17 05:58:56;;;;;;;;;;;;;;;10.82;62.25;101408.06;4992516;28;19952;-83
2022/10/17 06:01:23;;;;;;;;;;;;;;;11.22;62.00;101412.00;4993296;28;20384;-81
2022/10/17 06:03:48;;;;;;;;;;;;;;;11.42;59.88;101408.69;4993128;28;19928;-82
2022/10/17 06:06:14;;;;;;;;;;;;;;;11.32;60.52;101406.81;4993318;28;20339;-82
2022/10/17 06:08:39;;;;;;;;;;;;;;;11.67;59.59;101400.97;4993310;28;19921;-81
2022/10/17 06:11:05;;;;;;;;;;;;;;;11.67;58.96;101415.03;4993531;28;20303;-80
2022/10/17 06:13:30;;;;;;;;;;;;;;;12.02;58.37;101410.91;4993530;28;19914;-81
2022/10/17 06:15:55;;;;;;;;;;;;;;;12.15;57.69;101411.00;4993836;28;19996;-81
2022/10/17 06:18:21;;;;;;;;;;;;;;;11.98;57.57;101420.59;4993742;28;20335;-81
2022/10/17 06:20:47;;;;;;;;;;;;;;;11.99;57.06;101420.59;4993747;28;19914;-81
2022/10/17 06:23:12;;;;;;;;;;;;;;;12.29;58.59;101418.13;4993558;28;19914;-82
2022/10/17 06:25:37;;;;;;;;;;;;;;;12.51;57.17;101417.38;4993789;28;19920;-82
2022/10/17 06:28:03;;;;;;;;;;;;;;;12.70;56.07;101426.25;4993394;28;19930;-82
2022/10/17 06:30:28;;;;;;;;;;;;;;;12.96;55.21;101424.56;4993367;28;19918;-81
2022/10/17 06:32:53;;;;;;;;;;;;;;;12.53;55.29;101423.56;4993619;28;19964;-82
2022/10/17 06:35:19;;;;;;;;;;;;;;;12.20;56.55;101428.66;4993515;28;19910;-82
2022/10/17 06:37:44;;;;;;;;;;;;;;;12.04;57.08;101425.91;4993207;28;19972;-82
2022/10/17 06:40:11;;;;;;;;;;;;;;;12.27;57.10;101434.00;4993469;28;19914;-82
2022/10/17 06:42:37;;;;;;;;;;;;;;;12.30;56.88;101430.50;4993027;28;19909;-82
2022/10/17 06:45:02;;;;;;;;;;;;;;;12.30;56.56;101433.16;4992935;28;20045;-82
2022/10/17 06:47:28;;;;;;;;;;;;;;;12.25;55.99;101433.13;4993167;28;20509;-81
2022/10/17 06:49:53;;;;;;;;;;;;;;;12.14;56.41;101433.06;4993072;28;19913;-81
2022/10/17 06:52:18;;;;;;;;;;;;;;;12.26;56.58;101434.88;4992998;28;20388;-82
2022/10/17 06:54:44;;;;;;;;;;;;;;;12.69;56.07;101432.44;4993236;28;19913;-82
2022/10/17 06:57:09;;;;;;;;;;;;;;;12.78;55.55;101434.25;4992634;28;19921;-82
2022/10/17 06:59:34;;;;;;;;;;;;;;;12.59;55.74;101435.03;4992732;28;19917;-82
2022/10/17 07:02:00;;;;;;;;;;;;;;;13.01;55.99;101441.38;4992955;28;19921;-82
2022/10/17 07:04:26;;;;;;;;;;;;;;;13.37;55.81;101440.59;4992762;28;19918;-82
2022/10/17 07:06:51;;;;;;;;;;;;;;;13.60;54.14;101442.38;4992965;28;20055;-82
2022/10/17 07:09:16;;;;;;;;;;;;;;;14.17;52.83;101441.47;4992793;28;19925;-82
2022/10/17 07:11:42;;;;;;;;;;;;;;;14.40;51.83;101444.06;4992638;28;19972;-82
2022/10/17 07:14:07;;;;;;;;;;;;;;;14.61;50.55;101441.38;4992508;28;19960;-80
2022/10/17 07:16:33;;;;;;;;;;;;;;;14.86;51.12;101447.44;4992952;28;19910;-80
2022/10/17 07:18:58;;;;;;;;;;;;;;;14.28;50.00;101440.53;4992732;28;19920;-80
2022/10/17 07:21:23;;;;;;;;;;;;;;;14.66;50.55;101442.22;4992476;28;20384;-80
2022/10/17 07:23:49;;;;;;;;;;;;;;;14.79;50.12;101450.13;4992486;28;19948;-81
2022/10/17 07:26:15;;;;;;;;;;;;;;;14.96;49.58;101452.72;4992692;28;19940;-82
2022/10/17 07:28:42;;;;;;;;;;;;;;;15.27;48.13;101455.19;4992054;28;19973;-82
2022/10/17 07:31:11;;;;;;;;;;;;;;;15.40;47.62;101452.44;4992542;28;20028;-83
2022/10/17 07:33:36;;;;;;;;;;;;;;;15.24;49.40;101444.59;4975027;28;19921;-82
2022/10/17 07:36:03;;;;;;;;;;;;;;;15.96;48.04;101459.09;4992376;28;19913;-81
2022/10/17 07:38:28;;;;;;;;;;;;;;;15.99;46.15;101459.97;4992203;28;20410;-82
2022/10/17 07:40:57;;;;;;;;;;;;;;;16.24;46.48;101457.06;4992179;28;20004;-83
2022/10/17 07:43:23;;;;;;;;;;;;;;;15.91;46.20;101453.81;4992257;28;19917;-83
2022/10/17 07:45:48;;;;;;;;;;;;;;;15.30;46.74;101448.06;4992149;28;19918;-85
2022/10/17 07:48:13;;;;;;;;;;;;;;;15.65;46.56;101451.38;4991078;28;20386;-82
2022/10/17 07:50:39;;;;;;;;;;;;;;;15.87;46.54;101447.66;4992223;28;19914;-83
2022/10/17 07:53:04;;;;;;;;;;;;;;;16.10;46.66;101444.78;4992025;28;19913;-82
2022/10/17 07:55:29;;;;;;;;;;;;;;;16.04;45.75;101443.97;4974592;28;19914;-83
2022/10/17 07:57:55;;;;;;;;;;;;;;;16.19;45.29;101440.25;4991917;28;19993;-84
2022/10/17 08:00:21;;;;;;;;;;;;;;;16.40;44.30;101448.00;4991717;28;19996;-84
2022/10/17 08:02:47;;;;;;;;;;;;;;;16.05;43.80;101446.63;4992324;28;19964;-83
2022/10/17 08:05:12;;;;;;;;;;;;;;;16.03;45.54;101444.84;4992019;28;19914;-83
2022/10/17 08:07:39;;;;;;;;;;;;;;;16.24;44.82;101444.63;4991884;28;19914;-83
2022/10/17 08:10:04;;;;;;;;;;;;;;;16.61;45.19;101438.88;4991887;28;19913;-84
2022/10/17 08:12:33;;;;;;;;;;;;;;;16.71;44.96;101430.78;4992142;28;19972;-83
2022/10/17 08:14:58;;;;;;;;;;;;;;;16.84;43.03;101429.72;4991890;28;20011;-84
2022/10/17 08:17:23;;;;;;;;;;;;;;;16.31;43.93;101434.78;4991906;28;19952;-84
2022/10/17 08:19:49;;;;;;;;;;;;;;;16.90;43.34;101435.00;4991754;28;19914;-83
2022/10/17 08:22:14;;;;;;;;;;;;;;;16.87;43.58;101431.47;4995681;28;20404;-83
2022/10/17 08:24:41;;;;;;;;;;;;;;;17.45;42.45;101427.09;4995758;28;19948;-84
2022/10/17 08:27:10;;;;;;;;;;;;;;;17.32;42.80;101429.06;4995526;28;19924;-84
2022/10/17 08:29:36;;;;;;;;;;;;;;;17.38;42.33;101420.97;4995662;28;19925;-84
2022/10/17 08:32:01;;;;;;;;;;;;;;;17.14;42.79;101432.88;4995793;28;19913;-84
2022/10/17 08:34:26;;;;;;;;;;;;;;;17.04;42.96;101433.91;4995555;28;19964;-84
2022/10/17 08:36:52;;;;;;;;;;;;;;;17.40;41.90;101434.28;4996051;28;19914;-83
2022/10/17 08:39:17;;;;;;;;;;;;;;;17.36;43.22;101431.66;4995499;28;20056;-84
2022/10/17 08:41:55;;;;;;;;;;;;;;;16.79;43.58;101435.13;4995463;28;19976;-84
2022/10/17 08:44:30;;;;;;;;;;;;;;;16.71;43.12;101430.78;4995554;28;19914;-83
2022/10/17 08:46:58;;;;;;;;;;;;;;;17.02;42.58;101433.06;4995474;28;19913;-84
2022/10/17 08:49:35;;;;;;;;;;;;;;;17.06;42.01;101429.47;4994298;28;19913;-83
2022/10/17 08:52:14;;;;;;;;;;;;;;;17.43;40.91;101429.78;4995299;28;19914;-84
2022/10/17 08:54:41;;;;;;;;;;;;;;;17.60;41.08;101429.50;4995428;28;19913;-84
2022/10/17 08:57:10;;;;;;;;;;;;;;;17.77;40.94;101431.03;4995194;28;20299;-83
2022/10/17 08:59:35;;;;;;;;;;;;;;;17.48;41.30;101422.56;4995179;28;20387;-84
2022/10/17 09:02:07;;;;;;;;;;;;;;;17.67;42.32;101423.16;4995037;28;19949;-83
2022/10/17 09:04:38;;;;;;;;;;;;;;;18.03;40.42;101415.44;4963196;28;20324;-84
2022/10/17 09:07:15;;;;;;;;;;;;;;;18.14;40.87;101419.72;4968976;28;19941;-84
2022/10/17 09:09:46;;;;;;;;;;;;;;;18.37;40.09;101404.09;4968419;28;19918;-83
2022/10/17 09:12:27;;;;;;;;;;;;;;;18.54;37.97;101409.09;4971492;28;19918;-82
2022/10/17 09:15:07;;;;;;;;;;;;;;;18.57;37.46;101409.03;4970715;28;19980;-83
2022/10/17 09:17:42;;;;;;;;;;;;;;;18.13;37.99;101405.44;4974992;28;19992;-82
2022/10/17 09:20:08;;;;;;;;;;;;;;;18.27;36.73;101399.84;4974796;28;20320;-82
2022/10/17 09:22:40;;;;;;;;;;;;;;;18.15;35.69;101400.97;4971651;28;20332;-83
2022/10/17 09:25:10;;;;;;;;;;;;;;;18.38;35.04;101399.63;4966945;28;20459;-82
2022/10/17 09:27:52;;;;;;;;;;;;;;;18.40;35.23;101396.03;4972966;28;19922;-83
2022/10/17 09:30:24;;;;;;;;;;;;;;;18.36;34.82;101396.13;4963255;28;20431;-82
2022/10/17 09:32:50;;;;;;;;;;;;;;;18.38;34.40;101399.63;4972962;28;19924;-83
2022/10/17 09:35:16;;;;;;;;;;;;;;;18.38;34.44;101388.94;4974168;28;20008;-83
2022/10/17 09:37:42;;;;;;;;;;;;;;;18.55;32.23;101391.25;4973579;28;19925;-83
2022/10/17 09:40:12;;;;;;;;;;;;;;;18.39;33.30;101388.91;4973606;28;19914;-82
2022/10/17 09:42:38;;;;;;;;;;;;;;;18.43;32.49;101390.63;4973968;28;19966;-82
2022/10/17 09:45:03;;;;;;;;;;;;;;;18.49;32.50;101386.94;4973296;28;19914;-81
2022/10/17 09:47:33;;;;;;;;;;;;;;;18.61;33.32;101383.13;4974052;28;19945;-81
2022/10/17 09:50:00;;;;;;;;;;;;;;;18.64;31.88;101383.03;4968926;28;19942;-81
2022/10/17 09:52:28;;;;;;;;;;;;;;;18.82;31.83;101373.75;4972409;28;19921;-82
2022/10/17 09:55:04;;;;;;;;;;;;;;;18.89;31.70;101378.09;4972143;28;19957;-83
2022/10/17 09:57:49;;;;;;;;;;;;;;;19.09;32.08;101371.38;4972703;28;19965;-84
2022/10/17 10:00:19;;;;;;;;;;;;;;;19.24;32.02;101367.47;4972788;28;20320;-83
2022/10/17 10:02:45;;;;;;;;;;;;;;;19.24;32.81;101362.97;4974526;28;19957;-84
2022/10/17 10:05:15;;;;;;;;;;;;;;;19.28;33.51;101359.31;4974739;28;19941;-84
2022/10/17 10:07:41;;;;;;;;;;;;;;;19.38;33.77;101359.09;4974340;28;20000;-85
2022/10/17 10:10:21;;;;;;;;;;;;;;;19.26;33.01;101355.81;4974480;28;19954;-85
2022/10/17 10:13:00;;;;;;;;;;;;;;;19.21;32.62;101351.50;4974652;28;20381;-85
2022/10/17 10:15:31;;;;;;;;;;;;;;;19.21;33.38;101351.50;4956656;28;19914;-86
2022/10/17 10:17:56;;;;;;;;;;;;;;;19.15;33.58;101341.81;4973797;28;19922;-85
2022/10/17 10:20:27;;;;;;;;;;;;;;;19.29;33.17;101344.13;4973673;28;20078;-84
2022/10/17 10:23:06;;;;;;;;;;;;;;;19.30;34.83;101343.22;4973600;28;19920;-84
2022/10/17 10:25:32;;;;;;;;;;;;;;;19.43;34.88;101338.44;4973477;28;19921;-86
2022/10/17 10:27:57;;;;;;;;;;;;;;;19.26;34.56;101331.75;4972141;28;19933;-85
2022/10/17 10:30:29;;;;;;;;;;;;;;;19.30;34.67;101337.88;4973387;28;19918;-84
2022/10/17 10:32:55;;;;;;;;;;;;;;;19.47;34.21;101340.13;4974283;28;19913;-84
2022/10/17 10:35:30;;;;;;;;;;;;;;;19.03;34.12;101332.31;4974279;28;19910;-85
2022/10/17 10:37:56;;;;;;;;;;;;;;;18.81;35.38;101315.84;4973880;28;20008;-86
2022/10/17 10:40:22;;;;;;;;;;;;;;;19.06;34.63;101324.22;4973643;28;19960;-85
2022/10/17 10:42:57;;;;;;;;;;;;;;;19.41;35.89;101327.78;4973717;28;19961;-85
2022/10/17 10:45:27;;;;;;;;;;;;;;;19.46;35.27;101315.19;4973723;28;20009;-84
2022/10/17 10:47:53;;;;;;;;;;;;;;;19.44;35.75;101318.81;4973698;28;19914;-84
2022/10/17 10:50:21;;;;;;;;;;;;;;;19.65;34.59;101310.19;4973674;28;19964;-85
2022/10/17 10:52:51;;;;;;;;;;;;;;;19.65;34.75;101306.66;4956240;28;19997;-84
2022/10/17 10:55:19;;;;;;;;;;;;;;;19.40;34.89;101301.06;4973976;28;21566;-84
2022/10/17 10:57:45;;;;;;;;;;;;;;;19.39;34.60;101310.03;4973606;28;19953;-85
2022/10/17 11:00:15;;;;;;;;;;;;;;;19.53;34.39;101307.84;4971991;28;20320;-86
2022/10/17 11:02:52;;;;;;;;;;;;;;;19.66;34.17;101300.38;4973946;28;19956;-86
2022/10/17 11:05:23;;;;;;;;;;;;;;;19.63;33.86;101298.66;4973225;28;20412;-86
2022/10/17 11:08:02;;;;;;;;;;;;;;;19.79;33.90;101303.63;4973587;28;19982;-86
2022/10/17 11:10:46;;;;;;;;;;;;;;;20.11;33.25;101299.13;4973477;28;20396;-85
2022/10/17 11:13:14;;;;;;;;;;;;;;;20.02;34.88;101294.94;4973269;28;20312;-86
2022/10/17 11:15:48;;;;;;;;;;;;;;;20.26;34.30;101295.13;4973063;28;19910;-85
2022/10/17 11:18:34;;;;;;;;;;;;;;;20.04;33.63;101295.78;4973452;28;19914;-85
2022/10/17 11:21:04;;;;;;;;;;;;;;;19.82;34.69;101296.38;4973374;28;19917;-85
2022/10/17 11:23:32;;;;;;;;;;;;;;;19.74;34.06;101292.13;4973247;28;19921;-84
2022/10/17 11:26:01;;;;;;;;;;;;;;;19.64;34.33;101283.47;4973135;28;19975;-86
2022/10/17 11:28:28;;;;;;;;;;;;;;;19.70;34.20;101282.44;4972935;28;19975;-85
2022/10/17 11:30:54;;;;;;;;;;;;;;;19.96;34.58;101284.41;4973307;28;19969;-85
2022/10/17 11:33:24;;;;;;;;;;;;;;;20.07;34.16;101276.94;4973344;28;19914;-85
2022/10/17 11:35:51;;;;;;;;;;;;;;;20.09;33.62;101268.84;4973111;28;20360;-85
2022/10/17 11:38:34;;;;;;;;;;;;;;;20.01;33.30;101269.06;4955909;28;20000;-84
2022/10/17 11:41:00;;;;;;;;;;;;;;;19.79;34.02;101269.69;4973315;28;19918;-85
2022/10/17 11:43:28;;;;;;;;;;;;;;;19.84;34.24;101265.06;4972993;28;19921;-86
2022/10/17 11:45:57;;;;;;;;;;;;;;;20.08;33.76;101257.28;4972873;28;20377;-84
2022/10/17 11:48:26;;;;;;;;;;;;;;;19.98;34.31;101264.69;4973119;28;19914;-84
2022/10/17 11:51:01;;;;;;;;;;;;;;;20.04;34.10;101258.28;4972686;28;19965;-86
2022/10/17 11:53:53;;;;;;;;;;;;;;;20.04;34.66;101242.19;4972640;28;19920;-85
2022/10/17 11:56:24;;;;;;;;;;;;;;;20.33;34.02;101249.34;4956404;28;19910;-85
2022/10/17 11:58:56;;;;;;;;;;;;;;;20.48;33.37;101248.00;4972486;28;19914;-85
2022/10/17 12:01:30;;;;;;;;;;;;;;;20.49;33.33;101241.69;4972709;28;20008;-86
2022/10/17 12:04:14;;;;;;;;;;;;;;;20.30;33.48;101244.09;4972832;28;20056;-86
2022/10/17 12:06:42;;;;;;;;;;;;;;;20.20;33.36;101239.94;4973211;28;19921;-87
2022/10/17 12:09:08;;;;;;;;;;;;;;;20.17;32.85;101246.28;4955224;28;19999;-85
2022/10/17 12:11:45;;;;;;;;;;;;;;;20.29;32.47;101239.66;4972893;28;19914;-85
2022/10/17 12:14:33;;;;;;;;;;;;;;;20.27;32.64;101241.50;4972314;28;19918;-85
2022/10/17 12:16:59;;;;;;;;;;;;;;;19.89;32.86;101240.84;4966789;28;19922;-84
2022/10/17 12:19:27;;;;;;;;;;;;;;;20.21;33.66;101242.56;4972646;28;19914;-84
2022/10/17 12:22:13;;;;;;;;;;;;;;;20.15;33.39;101233.84;4972806;28;20023;-84
2022/10/17 12:24:38;;;;;;;;;;;;;;;20.48;33.12;101233.72;4963862;28;20420;-84
2022/10/17 12:27:22;;;;;;;;;;;;;;;20.59;32.88;101231.59;4972597;28;19965;-84
2022/10/17 12:29:47;;;;;;;;;;;;;;;20.65;32.86;101228.75;4972463;28;19918;-83
2022/10/17 12:32:13;;;;;;;;;;;;;;;20.68;33.31;101230.41;4972642;28;19929;-84
2022/10/17 12:34:38;;;;;;;;;;;;;;;20.51;32.70;101233.63;4972559;28;19957;-84
2022/10/17 12:37:04;;;;;;;;;;;;;;;20.13;33.39;101228.53;4955608;28;20411;-83
2022/10/17 12:39:29;;;;;;;;;;;;;;;20.54;32.64;101229.06;4972451;28;19961;-83
2022/10/17 12:41:54;;;;;;;;;;;;;;;20.89;32.12;101232.38;4972411;28;19914;-84
2022/10/17 12:44:20;;;;;;;;;;;;;;;20.81;31.74;101222.88;4972565;28;20391;-81
2022/10/17 12:46:48;;;;;;;;;;;;;;;20.77;32.15;101223.88;4972282;28;19914;-81